Time;durP1;ratioP1;P1;durP2;ratioP2;P2;SDS_P1;SDS_P2;PMS_P1;PMS_P2;Temp;Humidity;BMP_temperature;BMP_pressure;BME280_temperature;BME280_humidity;BME280_pressure;Samples;Min_cycle;Max_cycle;Signal;HPM_P1;HPM_P2
2023/12/19 06:56:50;;;;;;;5.80;5.20;;;;;;;;;;10564538;22;20045;-83
2023/12/19 07:01:52;;;;;;;4.50;3.60;;;;;;;;;;10526166;28;20422;-83
2023/12/19 07:06:53;;;;;;;3.83;3.10;;;;;;;;;;10525346;28;20115;-83
2023/12/19 07:11:55;;;;;;;3.42;2.90;;;;;;;;;;10526733;28;20042;-83
2023/12/19 07:16:56;;;;;;;5.00;4.43;;;;;;;;;;10547527;28;20066;-83
2023/12/19 07:21:58;;;;;;;7.72;5.68;;;;;;;;;;10528262;28;20483;-82
2023/12/19 07:27:01;;;;;;;6.22;4.45;;;;;;;;;;10545520;28;20028;-82
2023/12/19 07:32:02;;;;;;;4.45;3.30;;;;;;;;;;10524772;28;20056;-82
2023/12/19 07:37:03;;;;;;;5.47;4.57;;;;;;;;;;10561799;28;20020;-81
2023/12/19 07:42:15;;;;;;;4.90;4.25;;;;;;;;;;10533872;28;20111;-82
2023/12/19 07:47:16;;;;;;;7.10;4.18;;;;;;;;;;10524274;28;20029;-82
2023/12/19 07:52:17;;;;;;;3.90;3.15;;;;;;;;;;10519713;28;20119;-82
2023/12/19 07:57:18;;;;;;;4.47;3.67;;;;;;;;;;10496425;28;20041;-81
2023/12/19 08:02:19;;;;;;;2.50;1.60;;;;;;;;;;10494356;28;20579;-79
2023/12/19 08:07:20;;;;;;;4.45;2.58;;;;;;;;;;10491480;28;20111;-79
2023/12/19 08:12:21;;;;;;;6.28;5.65;;;;;;;;;;10491397;28;20440;-81
2023/12/19 08:17:22;;;;;;;3.85;3.30;;;;;;;;;;10497473;28;20047;-79
2023/12/19 08:22:23;;;;;;;5.82;4.65;;;;;;;;;;10492517;28;20059;-77
2023/12/19 08:27:28;;;;;;;5.20;4.70;;;;;;;;;;10488956;28;20032;-82
2023/12/19 08:32:29;;;;;;;7.70;6.90;;;;;;;;;;10513286;28;20059;-81
2023/12/19 08:37:30;;;;;;;7.10;5.30;;;;;;;;;;10510022;28;20031;-82
2023/12/19 08:42:31;;;;;;;3.92;3.40;;;;;;;;;;10493637;28;20454;-82
2023/12/19 08:47:32;;;;;;;3.88;2.97;;;;;;;;;;10498011;28;20028;-81
2023/12/19 08:52:33;;;;;;;5.88;4.60;;;;;;;;;;10549181;28;20036;-82
2023/12/19 08:57:35;;;;;;;4.07;3.10;;;;;;;;;;10514999;28;20045;-81
2023/12/19 09:02:36;;;;;;;5.30;4.55;;;;;;;;;;10494759;28;20052;-81
2023/12/19 09:07:37;;;;;;;5.72;4.13;;;;;;;;;;10495133;28;20536;-83
2023/12/19 09:12:38;;;;;;;7.47;4.03;;;;;;;;;;10515685;28;20434;-82
2023/12/19 09:17:41;;;;;;;7.25;4.32;;;;;;;;;;10500426;28;20384;-83
2023/12/19 09:22:42;;;;;;;4.32;3.65;;;;;;;;;;10499449;28;20028;-82
2023/12/19 09:27:43;;;;;;;4.18;3.08;;;;;;;;;;10518068;28;20020;-83
2023/12/19 09:32:44;;;;;;;;;;;;;;;;;;10501042;28;20230;-82
2023/12/19 09:37:48;;;;;;;4.80;3.60;;;;;;;;;;10517290;28;19909;-85
2023/12/19 09:42:49;;;;;;;;;;;;;;;;;;10499191;28;20039;-82
2023/12/19 09:47:57;;;;;;;4.88;2.90;;;;;;;;;;10501311;28;19905;-85
2023/12/19 09:53:00;;;;;;;5.13;4.35;;;;;;;;;;10500828;28;20104;-82
2023/12/19 09:58:02;;;;;;;4.68;3.40;;;;;;;;;;10498074;28;20052;-84
2023/12/19 10:03:04;;;;;;;5.43;3.97;;;;;;;;;;10497019;28;20040;-83
2023/12/19 10:08:21;;;;;;;7.25;4.30;;;;;;;;;;10496666;28;20432;-86
2023/12/19 10:13:35;;;;;;;5.32;3.45;;;;;;;;;;10497653;28;20170;-83
2023/12/19 10:18:39;;;;;;;4.07;3.28;;;;;;;;;;10517853;28;20028;-86
2023/12/19 10:23:41;;;;;;;4.28;3.08;;;;;;;;;;10500482;28;20095;-84
2023/12/19 10:28:42;;;;;;;4.35;3.00;;;;;;;;;;10518210;28;20078;-84
2023/12/19 10:33:43;;;;;;;;;;;;;;;;;;10527086;28;20056;-84
2023/12/19 10:38:49;;;;;;;5.38;3.30;;;;;;;;;;10499977;28;19971;-84
2023/12/19 10:43:51;;;;;;;3.67;2.45;;;;;;;;;;10495641;28;20029;-84
2023/12/19 10:48:54;;;;;;;5.55;2.95;;;;;;;;;;10498293;28;20061;-84
2023/12/19 10:54:21;;;;;;;5.72;2.55;;;;;;;;;;10497833;28;20021;-83
2023/12/19 10:59:35;;;;;;;3.80;2.65;;;;;;;;;;10493029;28;20060;-83
2023/12/19 11:04:38;;;;;;;3.97;2.40;;;;;;;;;;10512820;28;20056;-83
2023/12/19 11:09:44;;;;;;;3.30;2.30;;;;;;;;;;10502551;28;20062;-83
2023/12/19 11:14:45;;;;;;;4.20;2.00;;;;;;;;;;10505968;28;20051;-82
2023/12/19 11:19:56;;;;;;;2.92;1.90;;;;;;;;;;10522057;28;20024;-83
2023/12/19 11:25:01;;;;;;;2.13;1.73;;;;;;;;;;10535586;28;20029;-83
2023/12/19 11:30:02;;;;;;;4.47;3.67;;;;;;;;;;10518965;28;20025;-82
2023/12/19 11:35:03;;;;;;;;;;;;;;;;;;10527468;28;20558;-82
2023/12/19 11:40:05;;;;;;;3.97;2.10;;;;;;;;;;10523259;28;20069;-82
2023/12/19 11:45:19;;;;;;;2.78;2.00;;;;;;;;;;10539837;28;20028;-84
2023/12/19 11:50:39;;;;;;;3.47;2.40;;;;;;;;;;10520318;28;20058;-86
2023/12/19 11:55:40;;;;;;;2.92;1.83;;;;;;;;;;10512325;28;20033;-85
2023/12/19 12:00:41;;;;;;;;;;;;;;;;;;10512896;28;20027;-84
2023/12/19 12:05:42;;;;;;;2.95;2.38;;;;;;;;;;10528770;28;19904;-86
2023/12/19 12:10:57;;;;;;;1.98;1.70;;;;;;;;;;10510340;28;20068;-85
2023/12/19 12:16:00;;;;;;;2.92;1.98;;;;;;;;;;10505710;28;20071;-86
2023/12/19 12:21:16;;;;;;;18.33;14.15;;;;;;;;;;10510268;28;20028;-84
2023/12/19 12:26:23;;;;;;;3.20;2.10;;;;;;;;;;10509347;28;20036;-84
2023/12/19 12:31:24;;;;;;;4.22;3.00;;;;;;;;;;10508732;28;20086;-83
2023/12/19 12:36:25;;;;;;;2.65;1.88;;;;;;;;;;10515337;28;20166;-82
2023/12/19 12:41:29;;;;;;;4.95;2.72;;;;;;;;;;10511266;28;20024;-83
2023/12/19 12:46:30;;;;;;;3.22;2.30;;;;;;;;;;10513782;28;20407;-84
2023/12/19 12:51:32;;;;;;;2.70;2.13;;;;;;;;;;10530977;28;20029;-84
2023/12/19 12:56:36;;;;;;;3.15;2.28;;;;;;;;;;10567535;22;20044;-82
2023/12/19 13:01:43;;;;;;;3.42;2.20;;;;;;;;;;10521610;28;20406;-83
2023/12/19 13:06:49;;;;;;;3.20;2.10;;;;;;;;;;10536633;28;20052;-82
2023/12/19 13:12:12;;;;;;;3.47;2.58;;;;;;;;;;10552033;28;20040;-82
2023/12/19 13:17:15;;;;;;;3.13;2.50;;;;;;;;;;10546165;28;20111;-82
2023/12/19 13:22:40;;;;;;;3.47;2.60;;;;;;;;;;10553377;28;20081;-83
2023/12/19 13:27:52;;;;;;;3.13;1.90;;;;;;;;;;10555710;28;20089;-83
2023/12/19 13:32:53;;;;;;;2.63;1.88;;;;;;;;;;10554016;28;20032;-83
2023/12/19 13:38:00;;;;;;;4.47;3.50;;;;;;;;;;10549948;28;20044;-83
2023/12/19 13:43:06;;;;;;;3.40;2.47;;;;;;;;;;10542348;28;20027;-82
2023/12/19 13:48:08;;;;;;;3.35;2.38;;;;;;;;;;10534445;28;20024;-83
2023/12/19 13:53:19;;;;;;;4.22;2.78;;;;;;;;;;10527888;28;20043;-84
2023/12/19 13:58:21;;;;;;;3.60;2.47;;;;;;;;;;10550930;28;20031;-83
2023/12/19 14:03:22;;;;;;;4.00;2.90;;;;;;;;;;10554575;28;20050;-83
2023/12/19 14:08:23;;;;;;;2.40;1.90;;;;;;;;;;10554699;28;20024;-82
2023/12/19 14:13:40;;;;;;;3.65;2.28;;;;;;;;;;10559104;28;20047;-83
2023/12/19 14:18:42;;;;;;;4.10;2.75;;;;;;;;;;10558972;28;20051;-82
2023/12/19 14:23:43;;;;;;;2.95;1.85;;;;;;;;;;10520136;28;20028;-81
2023/12/19 14:28:58;;;;;;;2.90;2.00;;;;;;;;;;10553863;28;20475;-81
2023/12/19 14:34:00;;;;;;;3.55;1.67;;;;;;;;;;10537003;28;20499;-81
2023/12/19 14:39:09;;;;;;;3.40;2.58;;;;;;;;;;10530947;28;20495;-81
2023/12/19 14:44:10;;;;;;;3.78;2.00;;;;;;;;;;10554431;28;20119;-82
2023/12/19 14:49:15;;;;;;;3.25;1.85;;;;;;;;;;10563257;28;20022;-82
2023/12/19 14:54:24;;;;;;;3.17;2.30;;;;;;;;;;10554600;28;20048;-82
2023/12/19 14:59:26;;;;;;;3.40;2.40;;;;;;;;;;10554749;28;20123;-82
2023/12/19 15:04:28;;;;;;;3.20;2.10;;;;;;;;;;10542650;28;20032;-82
2023/12/19 15:09:29;;;;;;;2.47;1.30;;;;;;;;;;10564849;28;20016;-82
2023/12/19 15:14:47;;;;;;;3.25;1.70;;;;;;;;;;10565966;28;20092;-82
2023/12/19 15:19:50;;;;;;;3.22;2.00;;;;;;;;;;10567249;28;20020;-82
2023/12/19 15:24:52;;;;;;;3.72;2.20;;;;;;;;;;10585157;28;20107;-81
2023/12/19 15:29:59;;;;;;;4.00;2.20;;;;;;;;;;10552489;28;20055;-81
2023/12/19 15:35:05;;;;;;;4.68;3.17;;;;;;;;;;10556851;28;20020;-83
2023/12/19 15:40:09;;;;;;;3.88;2.40;;;;;;;;;;10567070;28;20031;-83
2023/12/19 15:45:11;;;;;;;3.80;2.65;;;;;;;;;;10549533;28;20044;-81
2023/12/19 15:50:12;;;;;;;3.90;2.85;;;;;;;;;;10571281;28;20020;-81
2023/12/19 15:55:22;;;;;;;;;;;;;;;;;;10572762;28;20035;-81
2023/12/19 16:00:23;;;;;;;3.38;2.50;;;;;;;;;;10569842;28;19919;-81
2023/12/19 16:05:24;;;;;;;;;;;;;;;;;;10572880;28;20122;-81
2023/12/19 16:10:25;;;;;;;3.47;2.55;;;;;;;;;;10554843;28;19903;-82
2023/12/19 16:15:27;;;;;;;4.25;2.38;;;;;;;;;;10566939;28;20028;-81
2023/12/19 16:20:30;;;;;;;2.90;2.25;;;;;;;;;;10564229;28;20055;-81
2023/12/19 16:25:31;;;;;;;4.68;3.13;;;;;;;;;;10549506;28;20039;-81
2023/12/19 16:30:35;;;;;;;4.65;2.20;;;;;;;;;;10567601;28;20090;-83
2023/12/19 16:35:37;;;;;;;2.67;2.35;;;;;;;;;;10555571;28;20028;-82
2023/12/19 16:40:38;;;;;;;3.75;2.78;;;;;;;;;;10548035;28;20040;-81
2023/12/19 16:45:39;;;;;;;3.63;2.65;;;;;;;;;;10550051;28;20068;-81
2023/12/19 16:50:42;;;;;;;2.92;2.17;;;;;;;;;;10550481;28;20395;-82
2023/12/19 16:55:43;;;;;;;3.72;2.50;;;;;;;;;;10556292;28;20066;-81
2023/12/19 17:00:46;;;;;;;4.43;2.10;;;;;;;;;;10560041;28;20024;-85
2023/12/19 17:05:52;;;;;;;3.25;2.58;;;;;;;;;;10565754;28;20020;-83
2023/12/19 17:10:53;;;;;;;3.65;2.75;;;;;;;;;;10554811;28;20039;-82
2023/12/19 17:15:57;;;;;;;4.20;1.73;;;;;;;;;;10546248;28;20120;-81
2023/12/19 17:21:23;;;;;;;3.83;1.80;;;;;;;;;;10531474;28;20526;-83
2023/12/19 17:27:17;;;;;;;4.43;2.58;;;;;;;;;;10550535;28;20372;-83
2023/12/19 17:32:42;;;;;;;3.92;2.78;;;;;;;;;;10417342;28;20020;-84
2023/12/19 17:37:45;;;;;;;5.28;3.40;;;;;;;;;;10567951;28;20121;-84
2023/12/19 17:42:47;;;;;;;3.50;2.63;;;;;;;;;;10530037;28;20028;-84
2023/12/19 17:48:00;;;;;;;3.60;2.88;;;;;;;;;;10560320;28;20016;-83
2023/12/19 17:53:02;;;;;;;4.22;3.83;;;;;;;;;;10561930;28;20028;-84
2023/12/19 17:58:03;;;;;;;4.78;4.00;;;;;;;;;;10562349;28;20475;-84
2023/12/19 18:03:04;;;;;;;;;;;;;;;;;;10566600;28;20066;-84
2023/12/19 18:08:05;;;;;;;4.47;2.80;;;;;;;;;;10548426;28;19908;-84
2023/12/19 18:13:06;;;;;;;3.47;2.40;;;;;;;;;;10566780;28;20036;-84
2023/12/19 18:18:07;;;;;;;2.45;2.25;;;;;;;;;;10567876;28;20024;-84
2023/12/19 18:23:08;;;;;;;;;;;;;;;;;;10577512;28;20028;-84
2023/12/19 18:28:09;;;;;;;3.05;2.35;;;;;;;;;;10547314;28;19915;-85
2023/12/19 18:33:10;;;;;;;2.88;2.22;;;;;;;;;;10561680;28;20032;-84
2023/12/19 18:38:11;;;;;;;;;;;;;;;;;;10544544;28;20048;-84
2023/12/19 18:43:12;;;;;;;3.08;2.42;;;;;;;;;;10543157;28;20018;-84
2023/12/19 18:48:13;;;;;;;;;;;;;;;;;;10560917;28;20028;-84
2023/12/19 18:53:14;;;;;;;3.72;2.70;;;;;;;;;;10543790;28;20299;-84
2023/12/19 18:58:15;;;;;;;2.95;1.92;;;;;;;;;;10551537;22;20535;-86
2023/12/19 19:03:26;;;;;;;3.65;2.25;;;;;;;;;;10482760;28;20032;-86
2023/12/19 19:08:29;;;;;;;2.50;1.50;;;;;;;;;;10482778;28;20032;-84
2023/12/19 19:13:30;;;;;;;2.58;2.20;;;;;;;;;;10481748;28;20094;-86
2023/12/19 19:18:31;;;;;;;;;;;;;;;;;;10485392;28;20055;-86
2023/12/19 19:23:32;;;;;;;2.60;1.90;;;;;;;;;;10508804;28;19962;-86
2023/12/19 19:28:37;;;;;;;;;;;;;;;;;;10483043;28;20020;-86
2023/12/19 19:33:41;;;;;;;3.60;3.08;;;;;;;;;;10482081;28;20371;-86
2023/12/19 19:38:44;;;;;;;4.60;3.22;;;;;;;;;;10480875;28;20025;-86
2023/12/19 19:43:55;;;;;;;3.63;2.80;;;;;;;;;;10479687;28;20476;-86
2023/12/19 19:48:57;;;;;;;2.97;2.22;;;;;;;;;;10498204;28;20032;-86
2023/12/19 19:54:10;;;;;;;2.83;2.20;;;;;;;;;;10488465;28;20024;-86
2023/12/19 19:59:15;;;;;;;2.65;2.30;;;;;;;;;;10491614;28;20043;-86
2023/12/19 20:04:16;;;;;;;2.50;1.80;;;;;;;;;;10509367;28;20047;-86
2023/12/19 20:09:20;;;;;;;;;;;;;;;;;;10496097;28;20027;-86
